createdAt,value
2019-05-20T00:01:51.130Z,27.70
2019-05-20T00:04:21.816Z,29.77
2019-05-20T00:06:53.382Z,28.33
2019-05-20T00:09:23.518Z,30.43
2019-05-20T00:11:53.892Z,28.93
2019-05-20T00:14:25.186Z,30.77
2019-05-20T00:16:55.804Z,32.00
2019-05-20T00:19:26.146Z,31.17
2019-05-20T00:21:56.319Z,31.17
2019-05-20T00:24:26.487Z,32.70
2019-05-20T00:26:59.482Z,33.67
2019-05-20T00:29:29.706Z,34.33
2019-05-20T00:35:15.654Z,37.10
2019-05-20T00:38:00.816Z,34.30
2019-05-20T00:41:18.633Z,36.07
2019-05-20T00:44:09.301Z,35.43
2019-05-20T00:47:03.505Z,37.97
2019-05-20T00:49:51.557Z,37.67
2019-05-20T00:52:43.176Z,39.80
2019-05-20T00:55:26.908Z,37.63
2019-05-20T00:57:57.056Z,39.17
2019-05-20T01:00:28.515Z,38.43
2019-05-20T01:02:58.672Z,39.80
2019-05-20T01:05:33.405Z,41.90
2019-05-20T01:08:14.819Z,41.97
2019-05-20T01:14:15.688Z,39.27
2019-05-20T01:16:46.087Z,39.63
2019-05-20T01:19:16.351Z,42.83
2019-05-20T01:21:46.966Z,38.07
2019-05-20T01:24:18.324Z,39.10
2019-05-20T01:26:48.540Z,37.97
2019-05-20T01:29:18.695Z,39.10
2019-05-20T01:31:49.415Z,39.37
2019-05-20T01:34:20.130Z,40.67
2019-05-20T01:36:50.373Z,40.03
2019-05-20T01:39:20.674Z,40.53
2019-05-20T01:41:50.829Z,41.10
2019-05-20T01:44:21.017Z,41.40
2019-05-20T01:46:52.401Z,40.50
2019-05-20T01:49:22.983Z,43.43
2019-05-20T01:51:53.670Z,42.97
2019-05-20T01:54:23.921Z,42.03
2019-05-20T01:56:54.093Z,41.77
2019-05-20T01:59:25.974Z,42.87
2019-05-20T02:01:56.145Z,43.33
2019-05-20T02:04:26.324Z,41.77
2019-05-20T02:06:56.566Z,43.73
2019-05-20T02:09:27.172Z,44.73
2019-05-20T02:11:57.403Z,45.07
2019-05-20T02:14:29.751Z,45.20
2019-05-20T02:17:02.627Z,45.13
2019-05-20T02:19:32.341Z,44.77
2019-05-20T02:22:03.516Z,46.00
2019-05-20T02:24:33.734Z,44.43
2019-05-20T02:27:03.968Z,46.80
2019-05-20T02:29:34.689Z,46.00
2019-05-20T02:32:04.943Z,46.17
2019-05-20T02:34:35.172Z,45.07
2019-05-20T02:37:12.879Z,45.53
2019-05-20T02:39:51.368Z,44.70
2019-05-20T02:43:03.500Z,44.77
2019-05-20T02:46:07.248Z,43.13
2019-05-20T02:48:41.780Z,42.13
2019-05-20T02:51:12.371Z,44.90
2019-05-20T02:53:43.166Z,42.00
2019-05-20T02:56:13.303Z,41.67
2019-05-20T02:58:43.466Z,42.57
2019-05-20T03:01:13.635Z,41.80
2019-05-20T03:03:44.237Z,41.23
2019-05-20T03:06:14.420Z,41.37
2019-05-20T03:09:16.618Z,39.87
2019-05-20T03:12:38.350Z,39.90
2019-05-20T03:15:18.564Z,39.87
2019-05-20T03:18:09.609Z,38.87
2019-05-20T03:20:47.605Z,37.97
2019-05-20T03:23:34.596Z,37.57
2019-05-20T03:26:19.675Z,35.97
2019-05-20T03:28:51.565Z,36.47
2019-05-20T03:31:21.810Z,37.10
2019-05-20T03:33:51.967Z,36.67
2019-05-20T03:36:22.130Z,35.80
2019-05-20T03:38:52.386Z,34.10
2019-05-20T03:41:33.577Z,35.90
2019-05-20T03:44:10.940Z,35.97
2019-05-20T03:47:09.895Z,36.43
2019-05-20T03:49:41.775Z,36.30
2019-05-20T03:52:12.312Z,37.10
2019-05-20T03:54:44.121Z,35.37
2019-05-20T03:57:14.275Z,36.43
2019-05-20T03:59:44.419Z,36.60
2019-05-20T04:02:15.814Z,37.63
2019-05-20T04:05:00.677Z,37.73
2019-05-20T04:07:19.364Z,38.03
2019-05-20T04:09:49.538Z,38.00
2019-05-20T04:12:44.919Z,38.67
2019-05-20T04:15:42.677Z,38.70
2019-05-20T04:19:10.381Z,38.00
2019-05-20T04:21:41.974Z,38.33
2019-05-20T04:24:12.299Z,35.87
2019-05-20T04:26:42.923Z,35.53
2019-05-20T04:29:13.888Z,36.20
2019-05-20T04:31:50.000Z,35.10
2019-05-20T04:38:03.752Z,33.23
2019-05-20T04:44:43.821Z,35.37
2019-05-20T04:47:43.225Z,34.47
2019-05-20T04:50:43.527Z,32.93
2019-05-20T04:54:12.902Z,34.57
2019-05-20T04:56:56.314Z,34.33
2019-05-20T04:59:41.994Z,33.70
2019-05-20T05:02:46.982Z,33.90
2019-05-20T05:05:49.009Z,32.40
2019-05-20T05:12:17.923Z,32.47
2019-05-20T05:15:47.745Z,32.27
2019-05-20T05:18:54.679Z,32.27
2019-05-20T05:22:01.480Z,31.07
2019-05-20T05:24:33.123Z,28.60
2019-05-20T05:27:03.744Z,29.47
2019-05-20T05:29:33.933Z,29.80
2019-05-20T05:32:04.147Z,29.03
2019-05-20T05:34:35.440Z,30.60
2019-05-20T05:37:06.054Z,28.83
2019-05-20T05:39:36.377Z,28.93
2019-05-20T05:42:06.546Z,28.47
2019-05-20T05:44:48.000Z,30.23
2019-05-20T05:47:34.983Z,29.33
2019-05-20T05:50:43.339Z,29.33
2019-05-20T05:53:45.910Z,28.40
2019-05-20T05:56:17.791Z,27.53
2019-05-20T05:58:49.250Z,27.00
2019-05-20T06:01:19.602Z,27.13
2019-05-20T06:03:49.767Z,25.57
2019-05-20T06:06:31.135Z,26.60
2019-05-20T06:09:25.943Z,26.33
2019-05-20T06:15:45.169Z,27.10
2019-05-20T06:18:27.536Z,27.67
2019-05-20T06:21:21.892Z,27.43
2019-05-20T06:24:15.200Z,28.57
2019-05-20T06:26:46.923Z,29.83
2019-05-20T06:29:17.194Z,29.60
2019-05-20T06:31:47.846Z,29.50
2019-05-20T06:34:19.255Z,27.63
2019-05-20T06:43:58.093Z,28.73
2019-05-20T06:50:29.712Z,27.80
2019-05-20T06:53:15.091Z,27.43
2019-05-20T06:56:05.639Z,26.87
2019-05-20T06:58:35.947Z,27.60
2019-05-20T07:01:07.006Z,25.70
2019-05-20T07:03:37.275Z,26.97
2019-05-20T07:06:08.094Z,24.80
2019-05-20T07:08:38.835Z,24.60
2019-05-20T07:11:09.031Z,24.37
2019-05-20T07:13:39.239Z,23.87
2019-05-20T07:16:09.562Z,26.23
2019-05-20T07:18:40.344Z,28.63
2019-05-20T07:21:10.548Z,29.27
2019-05-20T07:23:41.681Z,27.20
2019-05-20T07:26:11.934Z,28.87
2019-05-20T07:28:42.196Z,28.37
2019-05-20T07:31:12.489Z,27.43
2019-05-20T07:33:43.315Z,28.23
2019-05-20T07:36:13.585Z,27.80
2019-05-20T07:38:45.516Z,25.17
2019-05-20T07:41:15.705Z,26.27
2019-05-20T07:43:45.939Z,25.83
2019-05-20T07:46:16.686Z,26.43
2019-05-20T07:48:47.890Z,27.20
2019-05-20T07:51:20.431Z,25.40
2019-05-20T07:53:51.762Z,25.50
2019-05-20T07:56:25.881Z,24.53
2019-05-20T07:58:59.156Z,25.33
2019-05-20T08:01:30.615Z,26.40
2019-05-20T08:04:00.816Z,25.77
2019-05-20T08:06:31.186Z,25.67
2019-05-20T08:09:01.520Z,24.70
2019-05-20T08:11:34.016Z,24.90
2019-05-20T08:14:04.718Z,24.87
2019-05-20T08:16:34.917Z,23.77
2019-05-20T08:19:05.175Z,23.30
2019-05-20T08:21:35.323Z,24.40
2019-05-20T08:24:05.717Z,24.33
2019-05-20T08:26:36.383Z,23.80
2019-05-20T08:29:06.527Z,25.83
2019-05-20T08:31:37.211Z,23.60
2019-05-20T08:34:07.408Z,23.57
2019-05-20T08:36:37.566Z,22.97
2019-05-20T08:39:09.441Z,24.10
2019-05-20T08:42:26.509Z,23.23
2019-05-20T08:45:10.639Z,23.70
2019-05-20T08:51:20.924Z,24.47
2019-05-20T08:53:54.256Z,25.27
2019-05-20T08:56:24.685Z,24.63
2019-05-20T08:58:54.854Z,26.20
2019-05-20T09:01:25.096Z,24.57
2019-05-20T09:03:56.883Z,27.17
2019-05-20T09:06:28.053Z,25.53
2019-05-20T09:08:58.255Z,25.90
2019-05-20T09:11:28.408Z,26.00
2019-05-20T09:13:59.652Z,24.77
2019-05-20T09:16:30.426Z,25.77
2019-05-20T09:19:00.655Z,25.70
2019-05-20T09:21:30.815Z,25.80
2019-05-20T09:24:01.018Z,25.90
2019-05-20T09:26:31.400Z,23.67
2019-05-20T09:29:02.505Z,23.93
2019-05-20T09:31:33.644Z,23.90
2019-05-20T09:34:03.830Z,23.50
2019-05-20T09:36:34.089Z,23.73
2019-05-20T09:39:05.826Z,26.67
2019-05-20T09:41:37.224Z,24.73
2019-05-20T09:44:07.841Z,23.00
2019-05-20T09:46:38.052Z,24.70
2019-05-20T09:49:08.171Z,27.33
2019-05-20T09:51:38.363Z,26.73
2019-05-20T09:54:08.509Z,26.33
2019-05-20T09:56:40.097Z,25.93
2019-05-20T09:59:10.839Z,25.30
2019-05-20T10:01:41.263Z,26.47
2019-05-20T10:04:12.025Z,26.10
2019-05-20T10:06:42.291Z,27.83
2019-05-20T10:09:12.848Z,29.57
2019-05-20T10:11:43.602Z,30.90
2019-05-20T10:14:59.768Z,32.33
2019-05-20T10:18:35.555Z,34.50
2019-05-20T10:21:54.393Z,32.23
2019-05-20T10:24:39.480Z,32.93
2019-05-20T10:27:09.698Z,31.37
2019-05-20T10:29:40.956Z,30.73
2019-05-20T10:32:11.632Z,29.87
2019-05-20T10:34:41.813Z,31.67
2019-05-20T10:37:11.976Z,32.30
2019-05-20T10:39:42.167Z,31.00
2019-05-20T10:42:12.519Z,30.83
2019-05-20T10:44:43.096Z,30.37
2019-05-20T10:47:13.334Z,31.90
2019-05-20T10:49:43.546Z,31.50
2019-05-20T10:52:14.779Z,30.37
2019-05-20T10:54:44.935Z,32.40
2019-05-20T11:01:03.082Z,33.27
2019-05-20T11:04:46.613Z,33.80
2019-05-20T11:07:44.766Z,33.07
2019-05-20T11:14:05.926Z,31.43
2019-05-20T11:16:38.080Z,30.73
2019-05-20T11:19:08.234Z,29.90
2019-05-20T11:21:38.407Z,30.27
2019-05-20T11:24:09.072Z,29.43
2019-05-20T11:26:39.675Z,29.93
2019-05-20T11:29:09.860Z,30.40
2019-05-20T11:31:41.106Z,30.57
2019-05-20T11:34:11.333Z,30.00
2019-05-20T11:36:41.954Z,31.53
2019-05-20T11:40:00.529Z,30.73
2019-05-20T11:42:59.605Z,32.73
2019-05-20T11:46:07.189Z,32.20
2019-05-20T11:48:40.747Z,32.80
2019-05-20T11:51:11.196Z,33.77
2019-05-20T11:53:41.378Z,33.37
2019-05-20T11:56:13.024Z,34.17
2019-05-20T11:58:43.647Z,33.63
2019-05-20T12:01:13.855Z,34.67
2019-05-20T12:03:44.046Z,34.60
2019-05-20T12:06:14.273Z,35.93
2019-05-20T12:09:49.077Z,35.33
2019-05-20T12:12:53.649Z,37.13
2019-05-20T12:19:01.922Z,35.70
2019-05-20T12:21:32.182Z,34.20
2019-05-20T12:24:02.799Z,35.83
2019-05-20T12:26:33.105Z,33.60
2019-05-20T12:29:03.258Z,36.37
2019-05-20T12:31:33.479Z,35.67
2019-05-20T12:34:05.707Z,35.80
2019-05-20T12:36:39.208Z,34.97
2019-05-20T12:39:09.431Z,34.77
2019-05-20T12:41:39.622Z,33.90
2019-05-20T12:44:12.941Z,34.40
2019-05-20T12:46:42.369Z,33.17
2019-05-20T12:49:15.396Z,34.80
2019-05-20T12:51:45.864Z,33.80
2019-05-20T12:54:16.578Z,35.57
2019-05-20T12:56:46.731Z,34.07
2019-05-20T12:59:16.968Z,33.87
2019-05-20T13:01:47.242Z,33.67
2019-05-20T13:04:17.530Z,35.17
2019-05-20T13:06:48.158Z,34.33
2019-05-20T13:09:19.245Z,34.03
2019-05-20T13:11:49.507Z,33.87
2019-05-20T13:14:19.692Z,34.80
2019-05-20T13:16:50.608Z,32.63
2019-05-20T13:19:22.600Z,32.87
2019-05-20T13:21:54.882Z,32.77
2019-05-20T13:24:25.007Z,32.90
2019-05-20T13:26:55.747Z,32.63
2019-05-20T13:29:25.912Z,33.87
2019-05-20T13:31:56.109Z,33.23
2019-05-20T13:34:26.369Z,34.13
2019-05-20T13:36:57.077Z,34.53
2019-05-20T13:39:29.443Z,33.83
2019-05-20T13:41:59.631Z,33.30
2019-05-20T13:44:29.837Z,33.03
2019-05-20T13:47:00.556Z,33.27
2019-05-20T13:49:30.871Z,35.10
2019-05-20T13:52:01.082Z,34.33
2019-05-20T13:54:34.522Z,33.23
2019-05-20T13:57:07.069Z,33.37
2019-05-20T13:59:38.597Z,32.60
2019-05-20T14:02:10.279Z,33.60
2019-05-20T14:04:40.552Z,34.13
2019-05-20T14:07:13.987Z,34.20
2019-05-20T14:09:45.577Z,33.93
2019-05-20T14:12:15.729Z,33.43
2019-05-20T14:14:45.899Z,33.07
2019-05-20T14:17:16.565Z,33.07
2019-05-20T14:19:46.876Z,32.83
2019-05-20T14:22:18.499Z,32.30
2019-05-20T14:24:49.267Z,32.07
2019-05-20T14:27:19.990Z,33.60
2019-05-20T14:29:50.211Z,33.07
2019-05-20T14:32:20.607Z,35.63
2019-05-20T14:34:50.880Z,35.23
2019-05-20T14:37:21.035Z,34.17
2019-05-20T14:39:52.522Z,36.40
2019-05-20T14:42:25.479Z,34.03
2019-05-20T14:44:55.064Z,35.03
2019-05-20T14:47:25.285Z,37.23
2019-05-20T14:49:57.336Z,34.77
2019-05-20T14:52:27.902Z,36.20
2019-05-20T14:54:58.565Z,35.43
2019-05-20T14:57:29.522Z,37.73
2019-05-20T14:59:59.697Z,38.13
2019-05-20T15:02:31.103Z,37.43
2019-05-20T15:05:01.586Z,38.87
2019-05-20T15:07:31.803Z,37.37
2019-05-20T15:10:03.535Z,37.30
2019-05-20T15:12:34.147Z,38.30
2019-05-20T15:15:04.578Z,36.23
2019-05-20T15:17:34.796Z,37.50
2019-05-20T15:20:05.579Z,37.17
2019-05-20T15:22:39.576Z,36.27
2019-05-20T15:25:11.527Z,34.63
2019-05-20T15:27:42.448Z,35.20
2019-05-20T15:30:13.053Z,35.53
2019-05-20T15:32:43.255Z,33.13
2019-05-20T15:35:14.064Z,35.33
2019-05-20T15:37:47.126Z,32.87
2019-05-20T15:40:23.836Z,32.33
2019-05-20T15:42:51.509Z,34.23
2019-05-20T15:45:21.755Z,34.00
2019-05-20T15:47:52.919Z,32.33
2019-05-20T15:50:23.535Z,32.90
2019-05-20T15:52:53.755Z,31.70
2019-05-20T15:55:25.084Z,32.03
2019-05-20T15:57:55.297Z,31.97
2019-05-20T16:00:25.494Z,31.83
2019-05-20T16:02:56.001Z,31.60
2019-05-20T16:05:26.668Z,29.97
2019-05-20T16:07:56.878Z,30.83
2019-05-20T16:10:28.512Z,32.73
2019-05-20T16:12:58.688Z,33.17
2019-05-20T16:15:28.859Z,33.47
2019-05-20T16:17:59.683Z,32.73
2019-05-20T16:20:30.077Z,31.33
2019-05-20T16:23:00.244Z,31.63
2019-05-20T16:25:30.441Z,32.77
2019-05-20T16:28:01.858Z,31.40
2019-05-20T16:30:32.091Z,31.73
2019-05-20T16:33:02.351Z,31.67
2019-05-20T16:35:32.646Z,29.67
2019-05-20T16:38:03.353Z,30.90
2019-05-20T16:40:33.605Z,29.93
2019-05-20T16:43:03.830Z,29.70
2019-05-20T16:45:34.662Z,29.80
2019-05-20T16:48:05.266Z,29.33
2019-05-20T16:50:35.580Z,28.00
2019-05-20T16:53:06.025Z,27.53
2019-05-20T16:55:36.352Z,26.77
2019-05-20T16:58:07.552Z,25.67
2019-05-20T17:00:37.837Z,25.60
2019-05-20T17:03:09.330Z,25.43
2019-05-20T17:05:39.571Z,23.83
2019-05-20T17:08:09.881Z,23.83
2019-05-20T17:10:41.285Z,23.00
2019-05-20T17:13:11.553Z,24.27
2019-05-20T17:15:41.760Z,23.17
2019-05-20T17:18:12.452Z,23.23
2019-05-20T17:20:46.088Z,22.73
2019-05-20T17:23:16.026Z,22.20
2019-05-20T17:25:50.363Z,22.87
2019-05-20T17:28:18.419Z,21.00
2019-05-20T17:30:48.599Z,19.80
2019-05-20T17:33:20.166Z,20.17
2019-05-20T17:35:50.479Z,20.73
2019-05-20T17:38:20.659Z,21.20
2019-05-20T17:40:51.834Z,19.80
2019-05-20T17:43:23.739Z,21.17
2019-05-20T17:45:54.084Z,20.77
2019-05-20T17:48:24.276Z,20.93
2019-05-20T17:50:54.436Z,23.13
2019-05-20T17:53:24.624Z,21.33
2019-05-20T17:55:55.238Z,20.63
2019-05-20T17:58:26.596Z,22.30
2019-05-20T18:01:12.220Z,20.93
2019-05-20T18:03:29.752Z,21.27
2019-05-20T18:05:59.915Z,21.53
2019-05-20T18:08:34.659Z,20.93
2019-05-20T18:11:06.027Z,20.43
2019-05-20T18:13:36.234Z,20.47
2019-05-20T18:16:06.418Z,22.67
2019-05-20T18:18:39.642Z,21.30
2019-05-20T18:21:09.910Z,21.50
2019-05-20T18:23:40.616Z,22.07
2019-05-20T18:26:10.616Z,21.13
2019-05-20T18:28:41.267Z,22.00
2019-05-20T18:31:11.425Z,21.63
2019-05-20T18:33:41.956Z,21.90
2019-05-20T18:36:12.124Z,20.53
2019-05-20T18:38:44.931Z,21.67
2019-05-20T18:41:15.108Z,20.23
2019-05-20T18:43:45.326Z,20.53
2019-05-20T18:46:15.579Z,20.97
2019-05-20T18:48:47.497Z,19.87
2019-05-20T18:51:17.764Z,20.43
2019-05-20T18:53:48.984Z,21.40
2019-05-20T18:56:20.380Z,20.50
2019-05-20T18:58:51.050Z,20.87
2019-05-20T19:01:21.209Z,19.77
2019-05-20T19:03:51.402Z,20.50
2019-05-20T19:06:21.614Z,21.23
2019-05-20T19:08:51.890Z,20.90
2019-05-20T19:11:23.655Z,21.50
2019-05-20T19:13:54.320Z,20.67
2019-05-20T19:16:24.614Z,20.27
2019-05-20T19:18:54.747Z,21.00
2019-05-20T19:21:25.002Z,20.93
2019-05-20T19:23:55.915Z,20.37
2019-05-20T19:26:26.149Z,21.30
2019-05-20T19:28:57.358Z,21.80
2019-05-20T19:31:28.220Z,21.77
2019-05-20T19:33:58.741Z,23.03
2019-05-20T19:36:29.367Z,21.90
2019-05-20T19:38:59.646Z,22.43
2019-05-20T19:41:31.372Z,23.37
2019-05-20T19:44:01.765Z,21.67
2019-05-20T19:46:31.974Z,22.07
2019-05-20T19:49:03.172Z,22.33
2019-05-20T19:51:33.446Z,23.20
2019-05-20T19:54:03.606Z,22.50
2019-05-20T19:56:35.140Z,23.33
2019-05-20T19:59:05.875Z,25.33
2019-05-20T20:01:36.011Z,23.30
2019-05-20T20:04:06.266Z,21.53
2019-05-20T20:06:36.465Z,22.13
2019-05-20T20:09:07.634Z,22.50
2019-05-20T20:11:39.476Z,23.63
2019-05-20T20:14:10.200Z,22.10
2019-05-20T20:16:40.418Z,22.60
2019-05-20T20:19:10.575Z,25.47
2019-05-20T20:21:40.762Z,22.57
2019-05-20T20:24:11.413Z,24.10
2019-05-20T20:26:41.592Z,23.17
2019-05-20T20:29:11.804Z,22.03
2019-05-20T20:31:41.971Z,23.47
2019-05-20T20:34:12.751Z,24.03
2019-05-20T20:36:42.927Z,24.43
2019-05-20T20:39:13.072Z,24.23
2019-05-20T20:41:43.326Z,24.90
2019-05-20T20:44:14.012Z,26.27
2019-05-20T20:46:44.174Z,27.43
2019-05-20T20:49:14.946Z,28.00
2019-05-20T20:51:45.390Z,28.87
2019-05-20T20:54:15.900Z,29.97
2019-05-20T20:56:46.102Z,31.40
2019-05-20T20:59:16.367Z,31.57
2019-05-20T21:01:46.528Z,33.90
2019-05-20T21:04:17.614Z,32.73
2019-05-20T21:06:48.372Z,32.67
2019-05-20T21:09:18.598Z,33.17
2019-05-20T21:11:50.105Z,33.93
2019-05-20T21:14:20.351Z,30.87
2019-05-20T21:16:52.390Z,30.70
2019-05-20T21:19:22.559Z,29.73
2019-05-20T21:21:52.930Z,30.50
2019-05-20T21:24:24.092Z,28.93
2019-05-20T21:26:54.822Z,26.90
2019-05-20T21:29:25.001Z,26.63
2019-05-20T21:31:55.161Z,28.17
2019-05-20T21:34:25.388Z,26.70
2019-05-20T21:36:55.604Z,26.80
2019-05-20T21:39:31.347Z,25.83
2019-05-20T21:42:01.589Z,26.80
2019-05-20T21:44:31.822Z,25.07
2019-05-20T21:47:11.091Z,26.00
2019-05-20T21:49:41.839Z,24.73
2019-05-20T21:52:12.003Z,24.63
2019-05-20T21:54:43.843Z,25.63
2019-05-20T21:57:14.031Z,26.60
2019-05-20T21:59:44.695Z,27.87
2019-05-20T22:02:14.889Z,27.60
2019-05-20T22:04:45.426Z,26.37
2019-05-20T22:07:15.634Z,28.27
2019-05-20T22:09:46.290Z,28.27
2019-05-20T22:12:18.307Z,28.13
2019-05-20T22:14:48.574Z,27.07
2019-05-20T22:17:18.751Z,27.67
2019-05-20T22:19:49.051Z,27.30
2019-05-20T22:22:38.662Z,27.03
2019-05-20T22:25:09.563Z,25.93
2019-05-20T22:27:39.753Z,26.07
2019-05-20T22:30:10.267Z,26.80
2019-05-20T22:32:40.440Z,25.77
2019-05-20T22:35:11.475Z,26.07
2019-05-20T22:37:41.630Z,24.33
2019-05-20T22:40:12.852Z,25.43
2019-05-20T22:42:43.013Z,23.43
2019-05-20T22:45:13.709Z,23.60
2019-05-20T22:47:44.000Z,25.33
2019-05-20T22:50:14.157Z,27.97
2019-05-20T22:52:44.345Z,26.27
2019-05-20T22:55:15.625Z,27.30
2019-05-20T22:57:46.342Z,28.07
2019-05-20T23:00:16.816Z,27.77
2019-05-20T23:02:46.979Z,29.43
2019-05-20T23:05:18.339Z,28.77
2019-05-20T23:07:48.980Z,30.10
2019-05-20T23:10:20.713Z,30.17
2019-05-20T23:12:51.370Z,30.67
2019-05-20T23:15:21.644Z,31.37
2019-05-20T23:17:52.303Z,33.80
2019-05-20T23:20:22.503Z,32.10
2019-05-20T23:22:52.670Z,32.13
2019-05-20T23:25:24.198Z,32.67
2019-05-20T23:27:54.860Z,32.57
2019-05-20T23:30:25.116Z,31.73
2019-05-20T23:32:55.281Z,31.83
2019-05-20T23:35:25.448Z,31.50
2019-05-20T23:37:55.608Z,30.03
2019-05-20T23:40:26.193Z,31.00
2019-05-20T23:42:56.943Z,28.87
2019-05-20T23:45:27.148Z,27.53
2019-05-20T23:47:57.295Z,24.83
2019-05-20T23:50:28.023Z,26.60
2019-05-20T23:52:58.213Z,24.87
2019-05-20T23:55:28.363Z,22.63
2019-05-20T23:57:59.480Z,22.93
